createdAt,value
2019-04-11T00:00:27.977Z,11.30
2019-04-11T00:01:36.814Z,11.00
2019-04-11T00:02:28.907Z,11.40
2019-04-11T00:03:27.908Z,10.90
2019-04-11T00:04:28.286Z,10.70
2019-04-11T00:05:28.602Z,10.80
2019-04-11T00:06:27.813Z,10.90
2019-04-11T00:07:28.023Z,11.20
2019-04-11T00:08:28.055Z,11.10
2019-04-11T00:09:27.747Z,11.80
2019-04-11T00:10:27.710Z,11.00
2019-04-11T00:11:28.170Z,10.10
2019-04-11T00:12:27.659Z,10.40
2019-04-11T00:13:29.149Z,10.70
2019-04-11T00:14:27.640Z,10.60
2019-04-11T00:15:28.649Z,10.30
2019-04-11T00:16:27.544Z,10.60
2019-04-11T00:17:28.048Z,10.50
2019-04-11T00:18:27.492Z,10.60
2019-04-11T00:19:27.474Z,10.30
2019-04-11T00:20:28.406Z,10.40
2019-04-11T00:21:27.407Z,10.40
2019-04-11T00:22:27.771Z,11.90
2019-04-11T00:23:27.351Z,10.30
2019-04-11T00:24:27.353Z,10.90
2019-04-11T00:25:27.551Z,11.30
2019-04-11T00:26:28.463Z,11.70
2019-04-11T00:27:27.271Z,10.20
2019-04-11T00:28:27.854Z,10.60
2019-04-11T00:29:28.098Z,10.00
2019-04-11T00:30:28.196Z,10.30
2019-04-11T00:31:27.140Z,10.00
2019-04-11T00:32:27.565Z,10.70
2019-04-11T00:33:27.087Z,9.90
2019-04-11T00:34:27.064Z,9.50
2019-04-11T00:35:27.914Z,9.90
2019-04-11T00:36:27.006Z,10.70
2019-04-11T00:37:27.346Z,9.70
2019-04-11T00:38:26.953Z,9.80
2019-04-11T00:39:27.841Z,11.50
2019-04-11T00:40:27.030Z,9.70
2019-04-11T00:41:27.993Z,9.50
2019-04-11T00:42:26.838Z,9.60
2019-04-11T00:43:31.628Z,10.30
2019-04-11T00:44:27.223Z,10.70
2019-04-11T00:45:27.554Z,9.60
2019-04-11T00:46:26.779Z,9.80
2019-04-11T00:47:26.947Z,10.70
2019-04-11T00:48:27.914Z,10.50
2019-04-11T00:49:26.655Z,9.50
2019-04-11T00:50:27.383Z,9.40
2019-04-11T00:51:27.655Z,9.90
2019-04-11T00:52:27.484Z,10.50
2019-04-11T00:53:27.716Z,9.50
2019-04-11T00:54:26.889Z,9.50
2019-04-11T00:55:27.183Z,9.50
2019-04-11T00:56:26.468Z,10.10
2019-04-11T00:57:26.435Z,9.70
2019-04-11T00:58:27.646Z,9.70
2019-04-11T00:59:26.695Z,9.50
2019-04-11T01:00:27.091Z,9.90
2019-04-11T01:01:26.326Z,12.70
2019-04-11T01:02:26.324Z,9.00
2019-04-11T01:03:26.460Z,9.60
2019-04-11T01:04:26.245Z,9.30
2019-04-11T01:05:26.218Z,9.00
2019-04-11T01:06:26.191Z,9.30
2019-04-11T01:07:26.988Z,9.70
2019-04-11T01:08:27.276Z,9.50
2019-04-11T01:09:26.387Z,9.30
2019-04-11T01:10:26.543Z,9.50
2019-04-11T01:11:26.055Z,9.80
2019-04-11T01:12:26.793Z,8.90
2019-04-11T01:13:26.002Z,9.40
2019-04-11T01:14:25.970Z,11.10
2019-04-11T01:15:27.123Z,9.10
2019-04-11T01:16:26.313Z,9.90
2019-04-11T01:17:25.887Z,9.50
2019-04-11T01:18:25.864Z,9.70
2019-04-11T01:19:26.860Z,9.70
2019-04-11T01:20:25.823Z,9.50
2019-04-11T01:21:26.430Z,8.80
2019-04-11T01:22:26.540Z,10.20
2019-04-11T01:23:25.728Z,9.10
2019-04-11T01:24:26.014Z,10.20
2019-04-11T01:25:25.682Z,9.10
2019-04-11T01:26:27.160Z,9.40
2019-04-11T01:27:25.767Z,8.70
2019-04-11T01:28:26.641Z,9.20
2019-04-11T01:29:25.561Z,10.00
2019-04-11T01:30:25.532Z,9.20
2019-04-11T01:31:25.507Z,9.80
2019-04-11T01:32:26.396Z,9.70
2019-04-11T01:33:25.449Z,9.50
2019-04-11T01:34:26.647Z,10.20
2019-04-11T01:35:25.540Z,9.50
2019-04-11T01:36:25.375Z,9.40
2019-04-11T01:37:25.994Z,9.60
2019-04-11T01:38:25.590Z,9.50
2019-04-11T01:39:26.537Z,9.90
2019-04-11T01:40:25.550Z,9.50
2019-04-11T01:41:25.233Z,9.20
2019-04-11T01:42:25.234Z,9.40
2019-04-11T01:43:26.102Z,10.10
2019-04-11T01:44:25.155Z,9.10
2019-04-11T01:45:25.345Z,9.50
2019-04-11T01:46:25.098Z,9.50
2019-04-11T01:47:25.069Z,9.90
2019-04-11T01:48:25.739Z,10.50
2019-04-11T01:49:25.008Z,9.50
2019-04-11T01:50:25.187Z,9.60
2019-04-11T01:51:25.431Z,10.10
2019-04-11T01:52:24.935Z,11.10
2019-04-11T01:53:24.906Z,9.70
2019-04-11T01:54:25.873Z,9.30
2019-04-11T01:55:24.850Z,9.60
2019-04-11T01:56:25.241Z,9.40
2019-04-11T01:57:25.590Z,9.90
2019-04-11T01:58:24.765Z,9.50
2019-04-11T01:59:24.739Z,10.80
2019-04-11T02:00:24.716Z,9.70
2019-04-11T02:01:25.092Z,9.50
2019-04-11T02:02:24.659Z,9.80
2019-04-11T02:03:25.420Z,9.50
2019-04-11T02:04:24.662Z,9.80
2019-04-11T02:05:25.162Z,9.80
2019-04-11T02:06:25.620Z,10.70
2019-04-11T02:07:24.751Z,10.50
2019-04-11T02:08:25.032Z,10.00
2019-04-11T02:09:24.465Z,9.80
2019-04-11T02:10:24.554Z,10.20
2019-04-11T02:11:25.525Z,10.20
2019-04-11T02:12:24.383Z,10.10
2019-04-11T02:13:24.351Z,9.50
2019-04-11T02:14:24.327Z,10.50
2019-04-11T02:15:24.299Z,10.10
2019-04-11T02:16:25.209Z,10.40
2019-04-11T02:17:24.435Z,10.00
2019-04-11T02:18:24.217Z,11.80
2019-04-11T02:19:32.205Z,10.40
2019-04-11T02:21:17.876Z,10.00
2019-04-11T02:22:18.021Z,10.30
2019-04-11T02:23:17.477Z,10.70
2019-04-11T02:24:17.491Z,10.50
2019-04-11T02:25:18.308Z,10.30
2019-04-11T02:26:17.376Z,11.10
2019-04-11T02:27:17.353Z,10.70
2019-04-11T02:28:17.331Z,10.80
2019-04-11T02:29:17.350Z,12.20
2019-04-11T02:30:20.058Z,11.10
2019-04-11T02:31:19.210Z,11.00
2019-04-11T02:32:18.554Z,10.90
2019-04-11T02:33:18.374Z,11.20
2019-04-11T02:34:17.161Z,10.90
2019-04-11T02:35:17.836Z,11.80
2019-04-11T02:36:18.708Z,11.80
2019-04-11T02:37:17.360Z,11.90
2019-04-11T02:38:18.734Z,10.70
2019-04-11T02:39:19.194Z,11.50
2019-04-11T02:40:17.672Z,11.00
2019-04-11T02:41:17.179Z,11.10
2019-04-11T02:42:16.965Z,12.00
2019-04-11T02:43:17.653Z,11.10
2019-04-11T02:44:30.669Z,11.30
2019-04-11T02:45:30.822Z,11.40
2019-04-11T02:46:23.228Z,11.40
2019-04-11T02:47:22.817Z,10.80
2019-04-11T02:48:18.229Z,11.90
2019-04-11T02:49:17.023Z,11.20
2019-04-11T02:50:19.816Z,11.30
2019-04-11T02:51:18.201Z,11.70
2019-04-11T02:52:17.571Z,12.10
2019-04-11T02:53:17.044Z,11.90
2019-04-11T02:54:17.937Z,12.60
2019-04-11T02:55:17.129Z,12.70
2019-04-11T02:56:17.413Z,11.50
2019-04-11T02:57:18.177Z,12.90
2019-04-11T02:58:16.494Z,11.90
2019-04-11T02:59:17.685Z,12.10
2019-04-11T03:00:18.074Z,12.20
2019-04-11T03:01:17.770Z,12.40
2019-04-11T03:02:19.254Z,12.40
2019-04-11T03:03:17.431Z,12.30
2019-04-11T03:04:16.685Z,11.70
2019-04-11T03:05:16.408Z,12.00
2019-04-11T03:06:17.538Z,11.80
2019-04-11T03:07:16.632Z,11.50
2019-04-11T03:08:19.201Z,12.10
2019-04-11T03:09:17.800Z,11.80
2019-04-11T03:10:16.551Z,12.30
2019-04-11T03:11:16.706Z,11.70
2019-04-11T03:12:16.110Z,12.40
2019-04-11T03:13:16.755Z,12.10
2019-04-11T03:14:17.517Z,12.20
2019-04-11T03:15:32.105Z,11.80
2019-04-11T03:16:29.741Z,12.30
2019-04-11T03:17:21.279Z,13.00
2019-04-11T03:18:35.621Z,12.30
2019-04-11T03:19:29.598Z,12.60
2019-04-11T03:20:26.501Z,12.20
2019-04-11T03:21:20.339Z,13.50
2019-04-11T03:22:16.152Z,13.00
2019-04-11T03:23:18.646Z,13.80
2019-04-11T03:24:17.444Z,13.40
2019-04-11T03:25:15.749Z,12.90
2019-04-11T03:26:16.875Z,13.50
2019-04-11T03:27:15.711Z,13.30
2019-04-11T03:28:21.144Z,13.40
2019-04-11T03:29:15.632Z,14.20
2019-04-11T03:30:21.064Z,13.40
2019-04-11T03:31:50.260Z,12.80
2019-04-11T03:33:07.254Z,13.60
2019-04-11T03:34:01.257Z,13.00
2019-04-11T03:37:38.062Z,13.00
2019-04-11T03:38:36.822Z,13.70
2019-04-11T03:39:41.234Z,13.80
2019-04-11T03:40:32.255Z,13.40
2019-04-11T03:41:26.930Z,13.60
2019-04-11T03:42:32.347Z,14.00
2019-04-11T03:43:30.237Z,13.10
2019-04-11T03:44:23.527Z,13.30
2019-04-11T03:45:40.127Z,13.30
2019-04-11T03:46:34.945Z,13.00
2019-04-11T03:47:27.864Z,14.10
2019-04-11T03:48:29.048Z,13.60
2019-04-11T03:49:27.913Z,13.20
2019-04-11T03:50:17.452Z,13.20
2019-04-11T03:51:16.470Z,14.00
2019-04-11T03:52:15.150Z,13.20
2019-04-11T03:53:17.042Z,13.20
2019-04-11T03:54:15.709Z,13.80
2019-04-11T03:55:15.663Z,13.60
2019-04-11T03:56:16.243Z,13.60
2019-04-11T03:57:15.747Z,13.60
2019-04-11T03:58:15.393Z,13.70
2019-04-11T03:59:16.622Z,13.40
2019-04-11T04:00:15.583Z,13.10
2019-04-11T04:01:16.192Z,15.50
2019-04-11T04:02:16.718Z,13.20
2019-04-11T04:03:14.667Z,14.10
2019-04-11T04:04:15.487Z,13.80
2019-04-11T04:05:15.268Z,13.60
2019-04-11T04:06:14.830Z,15.70
2019-04-11T04:07:16.491Z,18.30
2019-04-11T04:08:14.535Z,14.60
2019-04-11T04:09:16.310Z,14.20
2019-04-11T04:10:15.725Z,13.90
2019-04-11T04:11:14.831Z,14.30
2019-04-11T04:12:15.568Z,15.00
2019-04-11T04:13:16.825Z,14.20
2019-04-11T04:14:15.030Z,14.20
2019-04-11T04:15:33.978Z,14.00
2019-04-11T04:16:22.150Z,15.00
2019-04-11T04:17:14.844Z,14.70
2019-04-11T04:18:15.154Z,14.40
2019-04-11T04:19:16.213Z,14.90
2019-04-11T04:20:15.165Z,14.40
2019-04-11T04:21:15.531Z,14.20
2019-04-11T04:22:15.766Z,14.50
2019-04-11T04:23:14.242Z,15.70
2019-04-11T04:24:14.548Z,14.60
2019-04-11T04:25:14.330Z,14.40
2019-04-11T04:26:14.744Z,15.10
2019-04-11T04:27:15.409Z,14.40
2019-04-11T04:28:15.602Z,16.40
2019-04-11T04:29:15.271Z,14.90
2019-04-11T04:30:15.910Z,15.20
2019-04-11T04:31:14.071Z,15.20
2019-04-11T04:32:14.214Z,16.30
2019-04-11T04:33:14.439Z,15.30
2019-04-11T04:34:15.411Z,14.60
2019-04-11T04:35:18.645Z,15.00
2019-04-11T04:36:15.347Z,15.30
2019-04-11T04:37:14.151Z,14.70
2019-04-11T04:38:15.492Z,14.90
2019-04-11T04:39:13.668Z,14.90
2019-04-11T04:40:31.473Z,15.00
2019-04-11T04:41:24.728Z,15.80
2019-04-11T04:42:24.291Z,15.60
2019-04-11T04:43:14.604Z,14.40
2019-04-11T04:44:14.415Z,16.10
2019-04-11T04:45:15.704Z,16.50
2019-04-11T04:46:31.325Z,15.60
2019-04-11T04:47:21.455Z,15.10
2019-04-11T04:48:16.675Z,15.60
2019-04-11T04:49:15.165Z,16.10
2019-04-11T04:50:13.791Z,15.40
2019-04-11T04:51:15.514Z,15.40
2019-04-11T04:52:14.419Z,16.30
2019-04-11T04:53:13.699Z,16.00
2019-04-11T04:54:14.202Z,15.80
2019-04-11T04:55:13.395Z,15.90
2019-04-11T04:56:13.863Z,16.00
2019-04-11T04:57:13.290Z,15.20
2019-04-11T04:58:13.213Z,15.60
2019-04-11T04:59:14.630Z,15.40
2019-04-11T05:00:14.287Z,15.40
2019-04-11T05:01:14.989Z,16.30
2019-04-11T05:02:13.022Z,15.20
2019-04-11T05:03:13.527Z,14.50
2019-04-11T05:04:13.986Z,14.00
2019-04-11T05:05:13.620Z,13.60
2019-04-11T05:06:14.163Z,14.60
2019-04-11T05:07:12.873Z,14.10
2019-04-11T05:08:14.374Z,14.00
2019-04-11T05:09:12.939Z,14.70
2019-04-11T05:10:13.471Z,14.20
2019-04-11T05:11:14.007Z,15.90
2019-04-11T05:12:13.890Z,14.50
2019-04-11T05:13:13.761Z,14.00
2019-04-11T05:14:12.676Z,14.80
2019-04-11T05:15:14.415Z,14.10
2019-04-11T05:16:17.142Z,13.90
2019-04-11T05:17:12.911Z,13.40
2019-04-11T05:18:15.259Z,14.10
2019-04-11T05:19:12.868Z,13.80
2019-04-11T05:20:12.520Z,15.00
2019-04-11T05:21:12.872Z,14.00
2019-04-11T05:22:12.630Z,13.90
2019-04-11T05:23:12.441Z,13.50
2019-04-11T05:24:12.574Z,15.00
2019-04-11T05:25:12.656Z,14.00
2019-04-11T05:26:12.347Z,13.10
2019-04-11T05:27:12.586Z,12.50
2019-04-11T05:28:12.300Z,12.60
2019-04-11T05:29:13.178Z,12.40
2019-04-11T05:30:12.237Z,12.90
2019-04-11T05:31:12.239Z,12.30
2019-04-11T05:32:13.175Z,11.80
2019-04-11T05:33:12.160Z,11.50
2019-04-11T05:34:12.136Z,11.50
2019-04-11T05:35:12.116Z,11.30
2019-04-11T05:36:12.331Z,11.10
2019-04-11T05:37:13.126Z,11.00
2019-04-11T05:38:12.487Z,11.00
2019-04-11T05:39:13.086Z,11.00
2019-04-11T05:40:12.669Z,10.50
2019-04-11T05:41:12.686Z,10.70
2019-04-11T05:42:15.997Z,10.70
2019-04-11T05:43:11.906Z,10.40
2019-04-11T05:44:12.550Z,10.20
2019-04-11T05:45:17.149Z,10.30
2019-04-11T05:46:26.104Z,9.30
2019-04-11T05:47:15.861Z,8.60
2019-04-11T05:48:11.781Z,8.40
2019-04-11T05:49:11.757Z,9.20
2019-04-11T05:50:13.704Z,9.10
2019-04-11T05:51:11.714Z,9.70
2019-04-11T05:52:12.301Z,8.60
2019-04-11T05:53:11.666Z,9.20
2019-04-11T05:54:12.215Z,8.70
2019-04-11T05:55:13.601Z,8.30
2019-04-11T05:56:16.036Z,8.40
2019-04-11T05:57:11.569Z,7.90
2019-04-11T05:58:14.227Z,7.70
2019-04-11T05:59:14.778Z,7.20
2019-04-11T06:00:11.808Z,7.20
2019-04-11T06:01:13.368Z,7.40
2019-04-11T06:02:11.479Z,7.20
2019-04-11T06:03:11.488Z,7.30
2019-04-11T06:04:15.179Z,7.20
2019-04-11T06:05:11.395Z,7.30
2019-04-11T06:06:11.378Z,7.30
2019-04-11T06:07:11.932Z,7.10
2019-04-11T06:08:12.545Z,6.90
2019-04-11T06:09:13.356Z,7.10
2019-04-11T06:10:12.927Z,6.60
2019-04-11T06:11:14.446Z,6.70
2019-04-11T06:12:11.643Z,6.80
2019-04-11T06:13:12.128Z,6.60
2019-04-11T06:14:11.207Z,6.80
2019-04-11T06:15:20.375Z,6.50
2019-04-11T06:17:05.208Z,6.50
2019-04-11T06:18:04.879Z,7.00
2019-04-11T06:19:57.904Z,7.00
2019-04-11T06:20:57.926Z,6.40
2019-04-11T06:21:58.170Z,6.50
2019-04-11T06:22:58.262Z,6.50
2019-04-11T06:23:57.914Z,6.40
2019-04-11T06:24:58.623Z,6.50
2019-04-11T06:25:59.235Z,6.70
2019-04-11T06:26:58.870Z,6.80
2019-04-11T06:27:57.953Z,6.50
2019-04-11T06:29:16.333Z,6.60
2019-04-11T06:30:51.088Z,6.50
2019-04-11T06:31:51.614Z,6.20
2019-04-11T06:33:44.847Z,6.60
2019-04-11T06:34:44.106Z,6.50
2019-04-11T06:36:37.067Z,6.20
2019-04-11T06:37:38.047Z,6.50
2019-04-11T06:39:31.498Z,6.30
2019-04-11T06:40:32.585Z,6.30
2019-04-11T06:41:32.667Z,6.30
2019-04-11T06:42:31.835Z,6.80
2019-04-11T06:43:32.106Z,6.20
2019-04-11T06:44:32.055Z,6.50
2019-04-11T06:45:31.895Z,6.50
2019-04-11T06:46:31.399Z,6.20
2019-04-11T06:47:32.546Z,6.20
2019-04-11T06:48:31.789Z,6.40
2019-04-11T06:49:31.221Z,7.10
2019-04-11T06:50:31.788Z,7.00
2019-04-11T06:51:32.358Z,6.80
2019-04-11T06:52:31.159Z,6.70
2019-04-11T06:53:32.180Z,6.60
2019-04-11T06:54:31.150Z,7.00
2019-04-11T06:55:31.087Z,7.30
2019-04-11T06:56:31.097Z,6.50
2019-04-11T06:57:32.118Z,6.60
2019-04-11T06:58:31.860Z,7.00
2019-04-11T06:59:32.289Z,6.90
2019-04-11T07:00:31.463Z,6.60
2019-04-11T07:01:31.053Z,6.60
2019-04-11T07:02:32.037Z,6.50
2019-04-11T07:03:32.424Z,6.60
2019-04-11T07:04:30.942Z,6.70
2019-04-11T07:05:30.948Z,6.20
2019-04-11T07:06:31.429Z,6.30
2019-04-11T07:07:32.361Z,6.30
2019-04-11T07:08:31.906Z,6.60
2019-04-11T07:09:31.024Z,6.10
2019-04-11T07:10:30.798Z,6.20
2019-04-11T07:11:31.771Z,5.90
2019-04-11T07:12:30.844Z,5.60
2019-04-11T07:13:30.796Z,6.10
2019-04-11T07:14:31.210Z,6.30
2019-04-11T07:15:31.526Z,5.80
2019-04-11T07:16:30.799Z,6.00
2019-04-11T07:17:31.684Z,6.10
2019-04-11T07:18:31.224Z,5.70
2019-04-11T07:19:30.759Z,7.40
2019-04-11T07:20:31.438Z,6.60
2019-04-11T07:21:31.062Z,6.00
2019-04-11T07:22:30.609Z,6.10
2019-04-11T07:23:30.738Z,6.10
2019-04-11T07:24:30.577Z,6.10
2019-04-11T07:25:31.086Z,6.80
2019-04-11T07:26:30.507Z,6.20
2019-04-11T07:27:30.510Z,6.40
2019-04-11T07:28:31.444Z,6.20
2019-04-11T07:29:31.512Z,7.10
2019-04-11T07:30:31.054Z,6.40
2019-04-11T07:31:31.973Z,6.50
2019-04-11T07:32:30.401Z,6.70
2019-04-11T07:33:31.208Z,6.00
2019-04-11T07:34:33.261Z,6.50
2019-04-11T07:35:30.346Z,6.30
2019-04-11T07:36:31.547Z,6.10
2019-04-11T07:37:30.349Z,6.70
2019-04-11T07:38:31.971Z,7.20
2019-04-11T07:39:31.103Z,6.70
2019-04-11T07:40:31.442Z,6.70
2019-04-11T07:41:31.784Z,6.60
2019-04-11T07:42:30.975Z,6.90
2019-04-11T07:43:31.296Z,7.20
2019-04-11T07:44:30.607Z,7.60
2019-04-11T07:45:30.206Z,7.80
2019-04-11T07:46:30.767Z,7.60
2019-04-11T07:47:30.257Z,7.80
2019-04-11T07:48:30.276Z,7.60
2019-04-11T07:49:30.666Z,7.60
2019-04-11T07:50:31.176Z,8.70
2019-04-11T07:51:30.132Z,7.60
2019-04-11T07:52:31.881Z,7.50
2019-04-11T07:53:30.833Z,8.10
2019-04-11T07:54:30.359Z,8.00
2019-04-11T07:55:30.097Z,8.50
2019-04-11T07:56:30.010Z,8.30
2019-04-11T07:57:30.640Z,8.10
2019-04-11T07:58:30.816Z,8.80
2019-04-11T07:59:29.987Z,9.00
2019-04-11T08:00:39.898Z,8.60
2019-04-11T08:01:29.920Z,8.90
2019-04-11T08:02:31.146Z,8.50
2019-04-11T08:03:29.912Z,8.30
2019-04-11T08:04:30.009Z,8.80
2019-04-11T08:05:30.221Z,9.10
2019-04-11T08:06:30.986Z,9.10
2019-04-11T08:07:30.460Z,9.60
2019-04-11T08:08:30.306Z,9.60
2019-04-11T08:09:29.801Z,10.00
2019-04-11T08:10:29.815Z,9.60
2019-04-11T08:11:29.792Z,9.90
2019-04-11T08:12:29.775Z,10.20
2019-04-11T08:13:30.387Z,10.20
2019-04-11T08:14:30.760Z,10.20
2019-04-11T08:15:29.745Z,10.40
2019-04-11T08:16:30.782Z,11.00
2019-04-11T08:17:36.843Z,10.40
2019-04-11T08:18:29.676Z,10.30
2019-04-11T08:19:30.954Z,10.80
2019-04-11T08:20:29.688Z,10.50
2019-04-11T08:21:30.210Z,10.60
2019-04-11T08:22:30.648Z,10.70
2019-04-11T08:23:29.794Z,10.60
2019-04-11T08:24:30.008Z,10.90
2019-04-11T08:25:29.594Z,10.80
2019-04-11T08:26:30.443Z,10.80
2019-04-11T08:27:29.555Z,11.10
2019-04-11T08:28:29.553Z,10.60
2019-04-11T08:29:30.436Z,10.90
2019-04-11T08:30:29.517Z,11.20
2019-04-11T08:31:30.642Z,11.20
2019-04-11T08:32:29.671Z,11.30
2019-04-11T08:33:30.801Z,10.50
2019-04-11T08:34:29.460Z,11.40
2019-04-11T08:35:30.362Z,11.10
2019-04-11T08:36:29.618Z,11.20
2019-04-11T08:37:29.644Z,10.60
2019-04-11T08:38:29.394Z,11.10
2019-04-11T08:39:29.428Z,10.90
2019-04-11T08:40:30.092Z,10.90
2019-04-11T08:41:29.515Z,10.70
2019-04-11T08:42:29.621Z,10.90
2019-04-11T08:43:29.339Z,11.10
2019-04-11T08:44:30.063Z,11.20
2019-04-11T08:45:29.761Z,11.10
2019-04-11T08:46:29.314Z,10.80
2019-04-11T09:05:20.550Z,9.60
2019-04-11T09:06:20.791Z,11.40
2019-04-11T09:07:21.178Z,11.00
2019-04-11T09:08:20.391Z,10.70
2019-04-11T09:09:20.932Z,11.30
2019-04-11T09:10:53.564Z,11.40
2019-04-11T09:11:48.968Z,11.20
2019-04-11T09:13:43.862Z,10.90
2019-04-11T09:14:42.872Z,10.70
2019-04-11T09:15:43.265Z,11.00
2019-04-11T09:16:42.847Z,11.00
2019-04-11T09:17:54.881Z,10.90
2019-04-11T09:18:43.950Z,11.40
2019-04-11T09:19:43.096Z,11.00
2019-04-11T09:20:43.439Z,10.60
2019-04-11T09:21:42.817Z,11.40
2019-04-11T09:22:42.779Z,11.30
2019-04-11T09:23:43.901Z,11.20
2019-04-11T09:24:43.174Z,10.80
2019-04-11T09:25:43.462Z,11.30
2019-04-11T09:26:42.735Z,11.30
2019-04-11T09:27:42.739Z,10.90
2019-04-11T09:28:43.928Z,11.10
2019-04-11T09:29:42.713Z,11.40
2019-04-11T09:30:43.149Z,10.60
2019-04-11T09:31:43.962Z,11.50
2019-04-11T09:32:42.666Z,11.30
2019-04-11T09:33:42.641Z,10.90
2019-04-11T09:34:43.931Z,11.00
2019-04-11T09:35:43.646Z,11.00
2019-04-11T09:36:42.606Z,10.90
2019-04-11T09:37:44.225Z,10.50
2019-04-11T09:38:42.610Z,11.20
2019-04-11T09:39:43.514Z,10.40
2019-04-11T09:40:43.657Z,10.60
2019-04-11T09:41:42.774Z,10.60
2019-04-11T09:42:43.088Z,10.40
2019-04-11T09:43:42.511Z,10.00
2019-04-11T09:44:42.551Z,11.10
2019-04-11T09:45:43.810Z,10.80
2019-04-11T09:46:42.810Z,10.70
2019-04-11T09:47:42.504Z,10.40
2019-04-11T09:48:42.477Z,9.80
2019-04-11T09:49:42.950Z,10.10
2019-04-11T09:50:42.735Z,9.10
2019-04-11T09:51:42.450Z,8.80
2019-04-11T09:52:42.424Z,9.30
2019-04-11T09:53:42.987Z,9.10
2019-04-11T09:54:42.402Z,9.80
2019-04-11T09:55:42.376Z,9.70
2019-04-11T09:56:43.009Z,9.10
2019-04-11T09:57:42.368Z,9.10
2019-04-11T09:58:42.346Z,9.00
2019-04-11T09:59:42.347Z,8.80
2019-04-11T10:00:43.108Z,8.80
2019-04-11T10:01:51.739Z,8.50
2019-04-11T10:03:35.227Z,9.10
2019-04-11T10:04:36.036Z,9.20
2019-04-11T10:06:32.266Z,8.50
2019-04-11T10:07:31.130Z,8.70
2019-04-11T10:09:26.125Z,8.10
2019-04-11T10:10:26.691Z,8.40
2019-04-11T10:12:20.045Z,8.30
2019-04-11T10:13:20.485Z,7.50
2019-04-11T10:15:13.520Z,7.90
2019-04-11T10:16:12.525Z,7.80
2019-04-11T10:18:05.274Z,8.10
2019-04-11T10:19:05.482Z,7.90
2019-04-11T10:20:59.236Z,7.80
2019-04-11T10:21:58.529Z,7.80
2019-04-11T10:22:58.397Z,7.50
2019-04-11T10:23:58.939Z,8.00
2019-04-11T10:24:58.902Z,8.10
2019-04-11T10:25:59.259Z,8.20
2019-04-11T10:26:58.437Z,8.00
2019-04-11T10:27:58.066Z,7.80
2019-04-11T10:28:58.067Z,8.10
2019-04-11T10:29:58.979Z,8.40
2019-04-11T10:30:58.040Z,7.70
2019-04-11T10:31:59.040Z,8.20
2019-04-11T10:32:59.320Z,7.30
2019-04-11T10:33:57.999Z,7.30
2019-04-11T10:34:57.991Z,7.50
2019-04-11T10:35:58.926Z,7.50
2019-04-11T10:36:59.077Z,7.40
2019-04-11T10:37:58.213Z,7.40
2019-04-11T10:38:57.939Z,7.20
2019-04-11T10:39:57.931Z,7.60
2019-04-11T10:40:58.698Z,7.50
2019-04-11T10:41:57.965Z,7.40
2019-04-11T10:42:58.140Z,8.60
2019-04-11T10:43:59.299Z,8.40
2019-04-11T10:44:58.281Z,8.10
2019-04-11T10:45:58.788Z,7.90
2019-04-11T10:46:57.871Z,7.90
2019-04-11T10:47:57.847Z,7.30
2019-04-11T10:49:05.398Z,7.60
2019-04-11T10:50:50.775Z,6.90
2019-04-11T10:51:58.443Z,6.90
2019-04-11T10:53:45.700Z,9.30
2019-04-11T10:54:45.334Z,8.10
2019-04-11T10:56:39.747Z,8.10
2019-04-11T10:57:40.381Z,8.80
2019-04-11T10:59:32.922Z,7.90
2019-04-11T11:00:33.455Z,8.20
2019-04-11T11:02:25.515Z,8.10
2019-04-11T11:03:27.291Z,7.90
2019-04-11T11:05:19.477Z,8.30
2019-04-11T11:06:18.368Z,7.70
2019-04-11T11:08:11.280Z,8.00
2019-04-11T11:09:12.205Z,7.50
2019-04-11T11:11:04.190Z,8.10
2019-04-11T11:12:05.124Z,7.90
2019-04-11T11:14:07.302Z,7.60
2019-04-11T11:15:00.963Z,7.60
2019-04-11T11:16:52.971Z,8.00
2019-04-11T11:18:27.662Z,7.50
2019-04-11T11:19:59.473Z,7.30
2019-04-11T11:20:53.919Z,7.90
2019-04-11T11:21:47.459Z,7.50
2019-04-11T11:22:48.203Z,7.40
2019-04-11T11:23:49.240Z,7.60
2019-04-11T11:24:48.218Z,7.30
2019-04-11T11:25:50.035Z,7.40
2019-04-11T11:26:47.692Z,7.30
2019-04-11T11:27:48.022Z,7.60
2019-04-11T11:28:48.568Z,7.40
2019-04-11T11:29:47.585Z,7.20
2019-04-11T11:30:47.439Z,7.60
2019-04-11T11:31:48.087Z,7.00
2019-04-11T11:32:47.449Z,7.70
2019-04-11T11:33:47.352Z,7.50
2019-04-11T11:34:51.290Z,7.30
2019-04-11T11:35:47.793Z,7.00
2019-04-11T11:36:47.978Z,7.30
2019-04-11T11:37:49.185Z,7.50
2019-04-11T11:38:48.100Z,7.40
2019-04-11T11:39:47.269Z,8.70
2019-04-11T11:40:47.976Z,7.70
2019-04-11T11:41:47.237Z,7.60
2019-04-11T11:42:47.275Z,7.50
2019-04-11T11:43:48.263Z,8.30
2019-04-11T11:44:47.212Z,8.00
2019-04-11T11:45:51.769Z,7.60
2019-04-11T11:46:47.186Z,7.40
2019-04-11T11:47:47.174Z,7.80
2019-04-11T11:48:49.970Z,7.60
2019-04-11T11:49:56.507Z,8.70
2019-04-11T11:50:50.560Z,7.30
2019-04-11T11:51:47.790Z,7.20
2019-04-11T11:52:47.122Z,7.80
2019-04-11T11:53:47.127Z,8.30
2019-04-11T11:54:48.164Z,7.70
2019-04-11T11:55:47.366Z,7.80
2019-04-11T11:56:47.856Z,7.80
2019-04-11T11:57:47.080Z,8.00
2019-04-11T11:58:51.851Z,8.40
2019-04-11T11:59:48.296Z,8.00
2019-04-11T12:00:49.710Z,8.00
2019-04-11T12:01:49.754Z,8.00
2019-04-11T12:02:49.064Z,8.30
2019-04-11T12:03:47.187Z,7.90
2019-04-11T12:04:47.002Z,7.90
2019-04-11T12:05:50.191Z,7.90
2019-04-11T12:06:49.170Z,8.70
2019-04-11T12:07:47.386Z,7.70
2019-04-11T12:08:48.295Z,7.80
2019-04-11T12:09:46.945Z,8.20
2019-04-11T12:10:46.933Z,8.20
2019-04-11T12:11:46.918Z,8.00
2019-04-11T12:12:46.929Z,8.40
2019-04-11T12:13:47.487Z,8.40
2019-04-11T12:14:47.816Z,8.30
2019-04-11T12:15:46.882Z,8.50
2019-04-11T12:16:48.343Z,8.20
2019-04-11T12:17:47.052Z,7.90
2019-04-11T12:18:50.303Z,8.20
2019-04-11T12:19:52.666Z,8.40
2019-04-11T12:20:47.877Z,8.80
2019-04-11T12:21:48.907Z,8.40
2019-04-11T12:22:49.198Z,8.30
2019-04-11T12:23:56.196Z,8.20
2019-04-11T12:24:48.191Z,8.80
2019-04-11T12:25:47.352Z,8.40
2019-04-11T12:26:47.590Z,8.10
2019-04-11T12:27:46.792Z,9.00
2019-04-11T12:28:47.787Z,8.30
2019-04-11T12:29:49.012Z,8.00
2019-04-11T12:30:46.756Z,8.40
2019-04-11T12:31:48.020Z,8.50
2019-04-11T12:32:46.736Z,8.40
2019-04-11T12:33:47.834Z,8.10
2019-04-11T12:34:47.183Z,8.00
2019-04-11T12:35:46.664Z,8.80
2019-04-11T12:36:50.105Z,8.70
2019-04-11T12:37:50.484Z,8.20
2019-04-11T12:38:46.634Z,8.90
2019-04-11T12:39:46.726Z,9.10
2019-04-11T12:40:46.656Z,9.00
2019-04-11T12:41:46.596Z,8.70
2019-04-11T12:42:47.030Z,8.70
2019-04-11T12:43:46.745Z,9.40
2019-04-11T12:44:46.611Z,9.50
2019-04-11T12:45:46.579Z,9.10
2019-04-11T12:46:46.591Z,8.90
2019-04-11T12:47:46.562Z,8.20
2019-04-11T12:48:46.563Z,8.40
2019-04-11T12:49:52.885Z,8.60
2019-04-11T12:50:46.559Z,8.90
2019-04-11T12:51:46.542Z,8.80
2019-04-11T12:52:46.519Z,8.40
2019-04-11T12:53:46.528Z,8.90
2019-04-11T12:54:46.539Z,8.70
2019-04-11T12:55:46.506Z,8.20
2019-04-11T12:56:46.601Z,8.10
2019-04-11T12:57:46.531Z,8.40
2019-04-11T12:58:46.462Z,8.10
2019-04-11T12:59:46.435Z,9.10
2019-04-11T13:00:46.415Z,7.70
2019-04-11T13:01:46.428Z,8.20
2019-04-11T13:02:46.452Z,8.30
2019-04-11T13:03:46.575Z,7.70
2019-04-11T13:04:46.345Z,8.20
2019-04-11T13:05:46.343Z,8.50
2019-04-11T13:06:46.339Z,7.80
2019-04-11T13:07:46.292Z,8.10
2019-04-11T13:08:46.299Z,7.90
2019-04-11T13:09:46.627Z,7.90
2019-04-11T13:10:46.301Z,8.00
2019-04-11T13:11:46.389Z,7.80
2019-04-11T13:12:46.378Z,7.70
2019-04-11T13:13:46.382Z,8.50
2019-04-11T13:14:46.355Z,8.40
2019-04-11T13:15:46.331Z,7.80
2019-04-11T13:16:46.318Z,7.90
2019-04-11T13:17:46.247Z,8.00
2019-04-11T13:18:46.335Z,8.00
2019-04-11T13:19:46.290Z,8.10
2019-04-11T13:20:46.331Z,8.50
2019-04-11T13:21:46.323Z,8.20
2019-04-11T13:22:46.260Z,8.90
2019-04-11T13:23:46.113Z,8.30
2019-04-11T13:24:46.230Z,8.20
2019-04-11T13:25:46.121Z,9.00
2019-04-11T13:26:46.097Z,8.90
2019-04-11T13:27:46.140Z,8.30
2019-04-11T13:28:46.076Z,8.30
2019-04-11T13:29:46.185Z,8.40
2019-04-11T13:30:46.130Z,7.80
2019-04-11T13:31:46.026Z,9.50
2019-04-11T13:32:46.146Z,8.00
2019-04-11T13:33:46.103Z,8.10
2019-04-11T13:34:46.114Z,8.00
2019-04-11T13:35:46.001Z,8.20
2019-04-11T13:36:46.003Z,8.00
2019-04-11T13:37:46.046Z,7.70
2019-04-11T13:38:46.082Z,8.40
2019-04-11T13:39:46.703Z,8.30
2019-04-11T13:40:46.060Z,8.50
2019-04-11T13:41:45.923Z,8.10
2019-04-11T13:42:45.998Z,8.30
2019-04-11T13:43:45.903Z,8.50
2019-04-11T13:44:46.018Z,8.10
2019-04-11T13:45:45.956Z,8.40
2019-04-11T13:46:46.007Z,8.40
2019-04-11T13:47:45.992Z,8.00
2019-04-11T13:48:45.948Z,8.10
2019-04-11T13:49:45.812Z,8.10
2019-04-11T13:50:45.981Z,7.70
2019-04-11T13:51:45.895Z,7.80